createdAt,value
2019-02-23T00:00:02.680Z,71.65
2019-02-23T00:02:31.827Z,71.77
2019-02-23T00:05:00.704Z,72.07
2019-02-23T00:07:30.491Z,72.41
2019-02-23T00:10:00.660Z,72.42
2019-02-23T00:12:30.954Z,71.46
2019-02-23T00:14:59.682Z,71.86
2019-02-23T00:17:31.692Z,71.85
2019-02-23T00:20:01.955Z,72.14
2019-02-23T00:22:34.057Z,72.21
2019-02-23T00:25:02.605Z,72.62
2019-02-23T00:27:35.051Z,72.62
2019-02-23T00:30:03.922Z,72.34
2019-02-23T00:32:32.841Z,72.59
2019-02-23T00:35:02.220Z,72.58
2019-02-23T00:37:32.282Z,71.99
2019-02-23T00:40:07.442Z,71.76
2019-02-23T00:42:39.274Z,71.27
2019-02-23T00:45:08.190Z,71.44
2019-02-23T00:47:38.673Z,70.04
2019-02-23T00:50:07.752Z,68.69
2019-02-23T00:52:37.959Z,68.58
2019-02-23T00:55:06.993Z,68.49
2019-02-23T00:57:36.061Z,68.56
2019-02-23T01:00:07.439Z,68.32
2019-02-23T01:02:36.741Z,68.30
2019-02-23T01:05:06.318Z,68.20
2019-02-23T01:07:38.195Z,68.06
2019-02-23T01:10:12.093Z,68.28
2019-02-23T01:12:45.242Z,68.19
2019-02-23T01:15:19.023Z,68.63
2019-02-23T01:17:49.531Z,68.29
2019-02-23T01:20:19.737Z,67.95
2019-02-23T01:22:48.677Z,68.28
2019-02-23T01:25:22.387Z,68.41
2019-02-23T01:27:52.658Z,68.20
2019-02-23T01:30:22.933Z,68.19
2019-02-23T01:32:51.900Z,68.12
2019-02-23T01:35:22.546Z,68.11
2019-02-23T01:37:52.166Z,67.90
2019-02-23T01:40:21.242Z,67.56
2019-02-23T01:42:50.360Z,67.82
2019-02-23T01:45:22.388Z,67.82
2019-02-23T01:47:50.964Z,67.65
2019-02-23T01:50:23.463Z,67.53
2019-02-23T01:52:55.009Z,67.68
2019-02-23T01:55:24.119Z,68.10
2019-02-23T01:57:54.634Z,67.96
2019-02-23T02:00:24.013Z,68.31
2019-02-23T02:02:53.132Z,68.14
2019-02-23T02:05:25.663Z,68.31
2019-02-23T02:07:56.272Z,68.39
2019-02-23T02:10:24.817Z,68.62
2019-02-23T02:12:58.480Z,68.92
2019-02-23T02:15:27.420Z,68.35
2019-02-23T02:17:56.528Z,68.49
2019-02-23T02:20:27.561Z,68.62
2019-02-23T02:22:59.646Z,68.43
2019-02-23T02:25:28.704Z,68.74
2019-02-23T02:27:58.944Z,68.47
2019-02-23T02:30:27.499Z,68.58
2019-02-23T02:32:56.960Z,68.29
2019-02-23T02:35:25.996Z,68.88
2019-02-23T02:37:55.126Z,69.07
2019-02-23T02:40:27.598Z,68.88
2019-02-23T02:42:56.753Z,68.52
2019-02-23T02:45:28.932Z,68.18
2019-02-23T02:48:01.182Z,68.28
2019-02-23T02:50:29.752Z,68.13
2019-02-23T02:53:02.402Z,68.26
2019-02-23T02:55:33.276Z,68.30
2019-02-23T02:58:06.810Z,68.42
2019-02-23T03:00:36.757Z,67.61
2019-02-23T03:03:07.614Z,67.39
2019-02-23T03:05:36.821Z,67.30
2019-02-23T03:08:05.779Z,66.82
2019-02-23T03:10:35.685Z,66.33
2019-02-23T03:13:09.369Z,66.92
2019-02-23T03:15:40.351Z,68.90
2019-02-23T03:18:12.800Z,69.74
2019-02-23T03:20:43.149Z,70.17
2019-02-23T03:23:12.648Z,69.21
2019-02-23T03:25:44.068Z,68.86
2019-02-23T03:28:19.646Z,68.96
2019-02-23T03:30:51.913Z,68.52
2019-02-23T03:33:22.155Z,69.85
2019-02-23T03:35:51.577Z,69.50
2019-02-23T03:38:25.188Z,66.64
2019-02-23T03:40:58.926Z,66.10
2019-02-23T03:43:28.030Z,66.69
2019-02-23T03:45:58.887Z,66.43
2019-02-23T03:48:29.599Z,66.38
2019-02-23T03:51:03.281Z,66.93
2019-02-23T03:53:32.206Z,67.49
2019-02-23T03:56:03.284Z,67.45
2019-02-23T03:58:31.844Z,67.55
2019-02-23T04:01:01.152Z,67.69
2019-02-23T04:03:31.559Z,67.47
2019-02-23T04:06:08.165Z,67.80
2019-02-23T04:08:39.906Z,68.90
2019-02-23T04:11:08.827Z,69.42
2019-02-23T04:13:39.033Z,68.92
2019-02-23T04:16:12.212Z,68.84
2019-02-23T04:18:44.058Z,68.85
2019-02-23T04:21:13.588Z,68.53
2019-02-23T04:23:44.934Z,68.80
2019-02-23T04:26:13.688Z,69.40
2019-02-23T04:28:45.369Z,69.28
2019-02-23T04:31:13.959Z,69.46
2019-02-23T04:33:44.859Z,69.91
2019-02-23T04:36:13.702Z,70.49
2019-02-23T04:38:42.968Z,71.13
2019-02-23T04:41:11.892Z,71.49
2019-02-23T04:43:44.346Z,71.39
2019-02-23T04:46:13.345Z,71.22
2019-02-23T04:48:45.653Z,71.62
2019-02-23T04:51:15.599Z,72.44
2019-02-23T04:53:45.908Z,72.32
2019-02-23T04:56:14.886Z,72.86
2019-02-23T04:58:44.802Z,72.72
2019-02-23T05:01:13.552Z,73.14
2019-02-23T05:03:42.263Z,73.21
2019-02-23T05:06:11.387Z,73.23
2019-02-23T05:08:40.608Z,73.01
2019-02-23T05:11:16.302Z,72.81
2019-02-23T05:13:46.481Z,73.42
2019-02-23T05:16:20.196Z,74.52
2019-02-23T05:18:50.897Z,75.00
2019-02-23T05:21:26.257Z,75.42
2019-02-23T05:23:53.580Z,75.01
2019-02-23T05:26:24.338Z,74.90
2019-02-23T05:28:53.667Z,74.73
2019-02-23T05:31:23.635Z,74.61
2019-02-23T05:33:55.742Z,73.85
2019-02-23T05:36:24.931Z,74.22
2019-02-23T05:38:54.183Z,74.49
2019-02-23T05:41:23.000Z,74.47
2019-02-23T05:43:56.402Z,75.09
2019-02-23T05:46:27.708Z,74.81
2019-02-23T05:48:58.863Z,75.37
2019-02-23T05:51:38.373Z,75.85
2019-02-23T05:53:58.379Z,76.04
2019-02-23T05:56:31.104Z,76.08
2019-02-23T05:59:04.685Z,75.80
2019-02-23T06:01:33.238Z,76.04
2019-02-23T06:04:06.853Z,75.77
2019-02-23T06:06:35.750Z,76.25
2019-02-23T06:09:07.357Z,76.36
2019-02-23T06:11:38.861Z,76.43
2019-02-23T06:14:09.360Z,76.66
2019-02-23T06:16:43.024Z,76.96
2019-02-23T06:19:16.477Z,77.31
2019-02-23T06:21:53.582Z,77.78
2019-02-23T06:24:18.985Z,77.92
2019-02-23T06:26:49.918Z,77.94
2019-02-23T06:29:21.327Z,77.45
2019-02-23T06:31:53.453Z,76.72
2019-02-23T06:34:23.964Z,77.09
2019-02-23T06:36:54.294Z,77.67
2019-02-23T06:39:27.611Z,77.71
2019-02-23T06:41:56.700Z,78.13
2019-02-23T06:44:25.566Z,78.19
2019-02-23T06:46:54.458Z,78.12
2019-02-23T06:49:25.940Z,77.34
2019-02-23T06:52:04.256Z,77.58
2019-02-23T06:54:34.143Z,77.59
2019-02-23T06:57:04.390Z,77.07
2019-02-23T06:59:33.773Z,77.23
2019-02-23T07:02:07.222Z,77.11
2019-02-23T07:04:36.734Z,77.14
2019-02-23T07:07:08.592Z,76.74
2019-02-23T07:09:40.834Z,75.70
2019-02-23T07:12:13.050Z,76.23
2019-02-23T07:14:43.683Z,75.89
2019-02-23T07:17:20.245Z,75.38
2019-02-23T07:19:51.078Z,75.23
2019-02-23T07:22:21.750Z,75.26
2019-02-23T07:24:52.283Z,75.11
2019-02-23T07:27:23.579Z,75.28
2019-02-23T07:29:54.234Z,74.95
2019-02-23T07:32:24.801Z,74.16
2019-02-23T07:34:55.521Z,74.34
2019-02-23T07:37:26.018Z,73.98
2019-02-23T07:39:54.949Z,72.44
2019-02-23T07:42:25.278Z,71.44
2019-02-23T07:44:53.901Z,71.09
2019-02-23T07:47:29.068Z,71.28
2019-02-23T07:50:01.529Z,71.91
2019-02-23T07:52:32.260Z,72.36
2019-02-23T07:55:04.415Z,73.32
2019-02-23T07:57:33.804Z,73.36
2019-02-23T08:00:02.353Z,70.43
2019-02-23T08:02:31.151Z,68.29
2019-02-23T08:04:59.812Z,66.75
2019-02-23T08:07:32.163Z,65.91
2019-02-23T08:10:05.979Z,65.53
2019-02-23T08:12:36.348Z,65.05
2019-02-23T08:15:12.533Z,64.88
2019-02-23T08:17:43.322Z,64.42
2019-02-23T08:20:12.457Z,63.61
2019-02-23T08:22:42.743Z,64.68
2019-02-23T08:25:11.960Z,64.43
2019-02-23T08:27:41.560Z,63.22
2019-02-23T08:30:11.830Z,63.34
2019-02-23T08:32:44.920Z,62.76
2019-02-23T08:35:18.967Z,63.56
2019-02-23T08:37:53.900Z,62.93
2019-02-23T08:40:22.820Z,62.64
2019-02-23T08:42:51.893Z,62.30
2019-02-23T08:45:22.142Z,61.98
2019-02-23T08:47:51.113Z,62.08
2019-02-23T08:50:23.118Z,62.03
2019-02-23T08:52:54.015Z,61.95
2019-02-23T08:55:27.706Z,61.74
2019-02-23T08:57:56.607Z,61.65
2019-02-23T09:00:25.384Z,61.52
2019-02-23T09:02:53.941Z,61.41
2019-02-23T09:05:27.407Z,60.68
2019-02-23T09:08:02.496Z,61.07
2019-02-23T09:10:31.613Z,60.86
2019-02-23T09:13:00.538Z,60.63
2019-02-23T09:15:32.189Z,60.74
2019-02-23T09:18:01.138Z,60.76
2019-02-23T09:20:30.211Z,60.57
2019-02-23T09:23:01.694Z,60.55
2019-02-23T09:25:30.473Z,59.97
2019-02-23T09:28:02.601Z,60.05
2019-02-23T09:30:31.294Z,59.45
2019-02-23T09:32:59.844Z,59.98
2019-02-23T09:36:14.993Z,60.33
2019-02-23T09:39:24.394Z,60.79
2019-02-23T09:42:23.764Z,59.64
2019-02-23T09:45:29.042Z,59.88
2019-02-23T09:48:24.959Z,59.02
2019-02-23T09:51:18.834Z,59.28
2019-02-23T09:54:30.732Z,59.59
2019-02-23T09:57:42.337Z,60.72
2019-02-23T10:00:11.405Z,59.31
2019-02-23T10:02:43.868Z,58.77
2019-02-23T10:05:16.072Z,59.48
2019-02-23T10:07:46.011Z,59.53
2019-02-23T10:10:14.990Z,58.57
2019-02-23T10:12:44.237Z,59.20
2019-02-23T10:15:16.152Z,58.95
2019-02-23T10:17:44.709Z,58.64
2019-02-23T10:20:15.170Z,57.82
2019-02-23T10:22:43.886Z,57.45
2019-02-23T10:25:13.028Z,58.03
2019-02-23T10:27:44.793Z,58.22
2019-02-23T10:30:34.662Z,57.16
2019-02-23T10:33:03.209Z,56.82
2019-02-23T10:35:32.343Z,56.21
2019-02-23T10:38:04.506Z,56.38
2019-02-23T10:40:35.465Z,57.44
2019-02-23T10:43:07.817Z,56.05
2019-02-23T10:45:38.555Z,56.57
2019-02-23T10:48:07.458Z,56.78
2019-02-23T10:50:38.815Z,55.76
2019-02-23T10:53:11.182Z,55.38
2019-02-23T10:55:42.825Z,56.10
2019-02-23T10:58:13.355Z,55.84
2019-02-23T11:00:43.899Z,54.71
2019-02-23T11:03:13.065Z,54.01
2019-02-23T11:05:43.719Z,53.51
2019-02-23T11:08:15.528Z,54.13
2019-02-23T11:10:44.637Z,54.53
2019-02-23T11:13:13.860Z,54.04
2019-02-23T11:15:43.053Z,53.96
2019-02-23T11:18:16.674Z,54.12
2019-02-23T11:20:48.783Z,53.68
2019-02-23T11:23:19.477Z,53.79
2019-02-23T11:25:48.370Z,53.39
2019-02-23T11:28:17.598Z,53.84
2019-02-23T11:30:47.877Z,52.78
2019-02-23T11:33:19.169Z,52.18
2019-02-23T11:35:48.141Z,51.98
2019-02-23T11:38:18.029Z,53.08
2019-02-23T11:40:48.133Z,52.86
2019-02-23T11:43:20.452Z,52.53
2019-02-23T11:45:49.365Z,52.75
2019-02-23T11:48:19.953Z,53.41
2019-02-23T11:50:53.838Z,53.50
2019-02-23T11:53:24.618Z,53.00
2019-02-23T11:55:53.187Z,53.23
2019-02-23T11:58:22.092Z,53.19
2019-02-23T12:00:52.466Z,53.58
2019-02-23T12:03:24.085Z,52.62
2019-02-23T12:05:54.520Z,52.68
2019-02-23T12:08:23.569Z,51.69
2019-02-23T12:10:52.469Z,52.10
2019-02-23T12:13:22.442Z,51.87
2019-02-23T12:15:51.174Z,51.98
2019-02-23T12:18:20.084Z,51.22
2019-02-23T12:20:49.001Z,51.45
2019-02-23T12:23:21.267Z,51.06
2019-02-23T12:25:50.025Z,50.69
2019-02-23T12:28:22.431Z,50.10
2019-02-23T12:30:54.154Z,49.80
2019-02-23T12:33:22.758Z,49.90
2019-02-23T12:35:53.349Z,50.39
2019-02-23T12:38:23.630Z,50.25
2019-02-23T12:40:56.178Z,50.50
2019-02-23T12:43:29.682Z,50.14
2019-02-23T12:45:59.861Z,49.21
2019-02-23T12:48:30.799Z,50.52
2019-02-23T12:50:59.715Z,49.95
2019-02-23T12:53:29.026Z,49.20
2019-02-23T12:56:03.940Z,49.03
2019-02-23T12:58:32.710Z,48.72
2019-02-23T13:01:06.333Z,49.53
2019-02-23T13:03:35.593Z,47.03
2019-02-23T13:06:04.317Z,47.93
2019-02-23T13:09:08.818Z,48.03
2019-02-23T13:11:38.988Z,48.33
2019-02-23T13:14:56.506Z,48.32
2019-02-23T13:18:01.124Z,47.28
2019-02-23T13:20:48.185Z,47.33
2019-02-23T13:23:48.499Z,46.77
2019-02-23T13:26:43.763Z,46.85
2019-02-23T13:29:37.565Z,45.67
2019-02-23T13:32:49.795Z,48.32
2019-02-23T13:35:55.169Z,46.99
2019-02-23T13:39:05.761Z,47.30
2019-02-23T13:41:58.102Z,45.36
2019-02-23T13:44:55.882Z,45.35
2019-02-23T13:47:59.392Z,44.03
2019-02-23T13:50:47.400Z,44.51
2019-02-23T13:53:53.575Z,44.32
2019-02-23T13:56:56.672Z,43.78
2019-02-23T13:59:50.462Z,44.59
2019-02-23T14:02:59.797Z,42.00
2019-02-23T14:05:54.175Z,44.01
2019-02-23T14:08:46.830Z,42.99
2019-02-23T14:11:52.163Z,41.74
2019-02-23T14:14:30.697Z,42.72
2019-02-23T14:17:34.954Z,42.72
2019-02-23T14:20:53.300Z,41.20
2019-02-23T14:24:04.985Z,41.75
2019-02-23T14:27:11.099Z,42.92
2019-02-23T14:30:19.576Z,42.49
2019-02-23T14:33:10.324Z,42.91
2019-02-23T14:36:01.565Z,42.76
2019-02-23T14:39:10.172Z,44.13
2019-02-23T14:41:55.661Z,44.92
2019-02-23T14:44:50.439Z,45.01
2019-02-23T14:47:53.034Z,45.76
2019-02-23T14:50:54.004Z,45.47
2019-02-23T14:53:59.905Z,45.43
2019-02-23T14:57:02.932Z,42.64
2019-02-23T15:00:01.765Z,42.45
2019-02-23T15:03:04.632Z,42.85
2019-02-23T15:05:58.037Z,41.87
2019-02-23T15:08:42.348Z,42.57
2019-02-23T15:11:47.770Z,41.91
2019-02-23T15:14:51.268Z,41.20
2019-02-23T15:18:01.457Z,41.73
2019-02-23T15:21:05.430Z,39.54
2019-02-23T15:24:04.494Z,39.34
2019-02-23T15:27:09.090Z,38.40
2019-02-23T15:30:02.400Z,38.62
2019-02-23T15:33:05.982Z,38.72
2019-02-23T15:36:08.668Z,38.34
2019-02-23T15:39:14.308Z,38.79
2019-02-23T15:42:13.384Z,38.33
2019-02-23T15:45:22.220Z,38.31
2019-02-23T15:48:13.394Z,38.42
2019-02-23T15:50:45.265Z,39.26
2019-02-23T15:53:14.550Z,40.00
2019-02-23T15:55:45.117Z,40.79
2019-02-23T15:58:13.686Z,40.79
2019-02-23T16:00:42.730Z,40.70
2019-02-23T16:03:13.905Z,41.26
2019-02-23T16:05:46.185Z,41.13
2019-02-23T16:08:16.352Z,41.34
2019-02-23T16:10:45.042Z,41.34
2019-02-23T16:13:18.761Z,41.67
2019-02-23T16:15:47.076Z,41.83
2019-02-23T16:18:17.495Z,42.34
2019-02-23T16:20:46.415Z,42.61
2019-02-23T16:23:16.374Z,42.90
2019-02-23T16:25:47.077Z,43.06
2019-02-23T16:28:15.688Z,43.59
2019-02-23T16:30:50.930Z,43.68
2019-02-23T16:33:20.318Z,44.92
2019-02-23T16:35:51.711Z,45.01
2019-02-23T16:38:20.593Z,45.00
2019-02-23T16:40:50.471Z,45.94
2019-02-23T16:43:22.239Z,45.94
2019-02-23T16:45:52.178Z,46.36
2019-02-23T16:48:25.942Z,46.42
2019-02-23T16:50:56.148Z,47.05
2019-02-23T16:53:26.976Z,49.18
2019-02-23T16:55:56.239Z,50.37
2019-02-23T16:58:25.881Z,50.92
2019-02-23T17:00:59.060Z,51.79
2019-02-23T17:03:29.595Z,52.14
2019-02-23T17:05:59.498Z,52.20
2019-02-23T17:08:30.377Z,51.71
2019-02-23T17:11:01.229Z,52.21
2019-02-23T17:13:31.337Z,52.58
2019-02-23T17:16:00.721Z,53.07
2019-02-23T17:18:34.319Z,53.59
2019-02-23T17:21:06.262Z,54.35
2019-02-23T17:23:36.795Z,55.20
2019-02-23T17:26:11.698Z,56.78
2019-02-23T17:28:41.046Z,57.77
2019-02-23T17:31:12.077Z,57.50
2019-02-23T17:33:40.646Z,57.28
2019-02-23T17:36:10.054Z,57.17
2019-02-23T17:38:38.636Z,58.47
2019-02-23T17:41:13.298Z,59.22
2019-02-23T17:43:48.915Z,59.85
2019-02-23T17:46:23.115Z,59.89
2019-02-23T17:48:52.585Z,60.13
2019-02-23T17:51:26.273Z,60.79
2019-02-23T17:53:56.722Z,61.13
2019-02-23T17:56:27.195Z,60.93
2019-02-23T17:59:01.018Z,61.50
2019-02-23T18:01:35.839Z,62.21
2019-02-23T18:04:06.500Z,61.80
2019-02-23T18:06:35.348Z,62.61
2019-02-23T18:09:05.769Z,63.00
2019-02-23T18:11:36.982Z,63.07
2019-02-23T18:14:05.934Z,63.09
2019-02-23T18:16:39.060Z,63.50
2019-02-23T18:19:08.577Z,63.41
2019-02-23T18:21:39.865Z,64.00
2019-02-23T18:24:19.126Z,64.65
2019-02-23T18:26:48.081Z,64.60
2019-02-23T18:29:18.497Z,64.64
2019-02-23T18:31:47.429Z,64.56
2019-02-23T18:34:21.042Z,65.00
2019-02-23T18:36:50.207Z,65.34
2019-02-23T18:39:19.297Z,65.28
2019-02-23T18:41:48.212Z,65.08
2019-02-23T18:44:25.701Z,65.61
2019-02-23T18:46:54.807Z,65.38
2019-02-23T18:49:23.377Z,65.37
2019-02-23T18:51:54.577Z,65.80
2019-02-23T18:54:25.674Z,66.13
2019-02-23T18:56:57.917Z,66.76
2019-02-23T18:59:28.889Z,66.76
2019-02-23T19:01:57.961Z,67.25
2019-02-23T19:04:30.294Z,67.30
2019-02-23T19:07:02.312Z,67.46
2019-02-23T19:09:33.823Z,67.89
2019-02-23T19:12:06.567Z,68.49
2019-02-23T19:14:41.731Z,68.90
2019-02-23T19:17:11.627Z,69.09
2019-02-23T19:19:44.972Z,69.35
2019-02-23T19:22:15.519Z,69.20
2019-02-23T19:24:45.141Z,69.70
2019-02-23T19:27:17.944Z,69.49
2019-02-23T19:29:52.888Z,69.45
2019-02-23T19:32:23.178Z,69.47
2019-02-23T19:34:56.385Z,69.43
2019-02-23T19:37:26.591Z,69.35
2019-02-23T19:39:58.463Z,69.76
2019-02-23T19:42:29.439Z,70.04
2019-02-23T19:45:03.558Z,70.53
2019-02-23T19:47:36.097Z,70.58
2019-02-23T19:50:17.228Z,71.16
2019-02-23T19:52:50.276Z,70.87
2019-02-23T19:55:20.847Z,71.16
2019-02-23T19:57:52.695Z,70.87
2019-02-23T20:00:24.932Z,70.19
2019-02-23T20:02:53.668Z,70.40
2019-02-23T20:05:22.409Z,70.49
2019-02-23T20:07:56.380Z,70.83
2019-02-23T20:10:27.257Z,71.22
2019-02-23T20:12:56.007Z,71.61
2019-02-23T20:15:24.872Z,71.27
2019-02-23T20:17:55.158Z,71.14
2019-02-23T20:20:25.458Z,70.96
2019-02-23T20:22:54.180Z,70.95
2019-02-23T20:25:26.124Z,71.18
2019-02-23T20:27:59.549Z,71.07
2019-02-23T20:30:34.701Z,71.65
2019-02-23T20:33:06.641Z,71.44
2019-02-23T20:35:38.446Z,71.38
2019-02-23T20:38:12.068Z,71.89
2019-02-23T20:40:46.819Z,72.04
2019-02-23T20:43:19.739Z,72.03
2019-02-23T20:45:51.752Z,71.73
2019-02-23T20:48:23.813Z,72.13
2019-02-23T20:50:56.145Z,72.48
2019-02-23T20:53:30.499Z,73.02
2019-02-23T20:56:01.405Z,73.21
2019-02-23T20:58:33.641Z,73.20
2019-02-23T21:01:02.706Z,73.28
2019-02-23T21:03:39.081Z,73.32
2019-02-23T21:06:09.543Z,73.38
2019-02-23T21:08:38.355Z,73.51
2019-02-23T21:11:08.956Z,73.48
2019-02-23T21:13:39.656Z,73.50
2019-02-23T21:16:12.765Z,73.21
2019-02-23T21:18:44.195Z,73.51
2019-02-23T21:21:14.419Z,73.73
2019-02-23T21:23:46.813Z,74.24
2019-02-23T21:26:22.966Z,74.00
2019-02-23T21:28:53.724Z,74.57
2019-02-23T21:31:23.853Z,74.62
2019-02-23T21:33:58.037Z,74.60
2019-02-23T21:36:28.449Z,74.30
2019-02-23T21:39:00.423Z,74.85
2019-02-23T21:41:31.521Z,74.34
2019-02-23T21:44:05.488Z,74.90
2019-02-23T21:46:34.499Z,74.96
2019-02-23T21:49:03.590Z,75.09
2019-02-23T21:51:36.670Z,74.50
2019-02-23T21:54:10.153Z,74.91
2019-02-23T21:56:45.217Z,74.96
2019-02-23T21:59:22.032Z,74.91
2019-02-23T22:01:51.020Z,75.29
2019-02-23T22:04:23.042Z,75.15
2019-02-23T22:06:52.343Z,75.33
2019-02-23T22:09:25.630Z,75.54
2019-02-23T22:11:58.999Z,75.11
2019-02-23T22:14:29.866Z,75.32
2019-02-23T22:17:01.795Z,75.09
2019-02-23T22:19:34.211Z,75.18
2019-02-23T22:22:03.533Z,75.49
2019-02-23T22:24:36.385Z,75.49
2019-02-23T22:27:06.645Z,75.69
2019-02-23T22:29:37.380Z,75.45
2019-02-23T22:32:06.242Z,75.41
2019-02-23T22:34:36.555Z,75.33
2019-02-23T22:37:10.008Z,75.05
2019-02-23T22:39:42.517Z,74.94
2019-02-23T22:42:13.091Z,74.91
2019-02-23T22:44:45.566Z,74.62
2019-02-23T22:47:35.425Z,74.66
2019-02-23T22:50:06.829Z,74.54
2019-02-23T22:52:37.684Z,74.97
2019-02-23T22:55:07.106Z,75.21
2019-02-23T22:57:45.423Z,75.46
2019-02-23T23:00:18.084Z,75.68
2019-02-23T23:02:49.852Z,75.71
2019-02-23T23:05:23.253Z,75.59
2019-02-23T23:07:56.594Z,76.33
2019-02-23T23:10:26.856Z,76.90
2019-02-23T23:13:00.461Z,76.58
2019-02-23T23:15:34.388Z,77.27
2019-02-23T23:18:04.959Z,77.17
2019-02-23T23:20:38.221Z,77.95
2019-02-23T23:23:10.038Z,78.10
2019-02-23T23:25:39.398Z,78.12
2019-02-23T23:28:11.781Z,77.88
2019-02-23T23:30:41.736Z,78.11
2019-02-23T23:33:12.315Z,77.83
2019-02-23T23:35:42.419Z,77.23
2019-02-23T23:38:13.169Z,76.65
2019-02-23T23:40:45.667Z,76.14
2019-02-23T23:43:19.721Z,76.62
2019-02-23T23:45:50.619Z,76.15
2019-02-23T23:48:22.767Z,75.86
2019-02-23T23:50:51.493Z,75.60
2019-02-23T23:53:21.428Z,75.55
2019-02-23T23:55:57.635Z,75.93
2019-02-23T23:58:27.048Z,76.07
